sensor_id;sensor_type;location;lat;lon;timestamp;temperature;humidity
10046;DHT22;5063;50.878;4.742;2022-11-27T00:00:23;7.40;99.90
10046;DHT22;5063;50.878;4.742;2022-11-27T00:02:49;7.30;99.90
10046;DHT22;5063;50.878;4.742;2022-11-27T00:05:14;7.20;99.90
10046;DHT22;5063;50.878;4.742;2022-11-27T00:07:40;7.20;99.90
10046;DHT22;5063;50.878;4.742;2022-11-27T00:10:06;7.30;99.90
10046;DHT22;5063;50.878;4.742;2022-11-27T00:12:32;7.30;99.90
10046;DHT22;5063;50.878;4.742;2022-11-27T00:14:58;7.30;99.90
10046;DHT22;5063;50.878;4.742;2022-11-27T00:17:24;7.40;99.90
10046;DHT22;5063;50.878;4.742;2022-11-27T00:19:49;7.50;99.90
10046;DHT22;5063;50.878;4.742;2022-11-27T00:22:15;7.50;99.90
10046;DHT22;5063;50.878;4.742;2022-11-27T00:24:42;7.50;99.90
10046;DHT22;5063;50.878;4.742;2022-11-27T00:27:08;7.60;99.90
10046;DHT22;5063;50.878;4.742;2022-11-27T00:29:34;7.60;99.90
10046;DHT22;5063;50.878;4.742;2022-11-27T00:32:00;7.60;99.90
10046;DHT22;5063;50.878;4.742;2022-11-27T00:34:25;7.60;99.90
10046;DHT22;5063;50.878;4.742;2022-11-27T00:36:51;7.70;99.90
10046;DHT22;5063;50.878;4.742;2022-11-27T00:39:17;7.70;99.90
10046;DHT22;5063;50.878;4.742;2022-11-27T00:41:43;7.60;99.90
10046;DHT22;5063;50.878;4.742;2022-11-27T00:44:11;7.70;99.90
10046;DHT22;5063;50.878;4.742;2022-11-27T00:46:37;7.80;99.90
10046;DHT22;5063;50.878;4.742;2022-11-27T00:49:04;7.90;99.90
10046;DHT22;5063;50.878;4.742;2022-11-27T00:51:31;7.80;99.90
10046;DHT22;5063;50.878;4.742;2022-11-27T00:53:57;7.70;99.90
10046;DHT22;5063;50.878;4.742;2022-11-27T00:56:28;7.80;99.90
10046;DHT22;5063;50.878;4.742;2022-11-27T00:58:55;7.70;99.90
10046;DHT22;5063;50.878;4.742;2022-11-27T01:01:27;7.70;99.90
10046;DHT22;5063;50.878;4.742;2022-11-27T01:03:54;7.80;99.90
10046;DHT22;5063;50.878;4.742;2022-11-27T01:06:21;7.70;99.90
10046;DHT22;5063;50.878;4.742;2022-11-27T01:08:47;7.70;99.90
10046;DHT22;5063;50.878;4.742;2022-11-27T01:11:25;7.70;99.90
10046;DHT22;5063;50.878;4.742;2022-11-27T01:13:54;7.70;99.90
10046;DHT22;5063;50.878;4.742;2022-11-27T01:16:22;7.70;99.90
10046;DHT22;5063;50.878;4.742;2022-11-27T01:18:50;7.80;99.90
10046;DHT22;5063;50.878;4.742;2022-11-27T01:21:18;7.70;99.90
10046;DHT22;5063;50.878;4.742;2022-11-27T01:23:45;7.70;99.90
10046;DHT22;5063;50.878;4.742;2022-11-27T01:26:11;7.80;99.90
10046;DHT22;5063;50.878;4.742;2022-11-27T01:28:37;7.80;99.90
10046;DHT22;5063;50.878;4.742;2022-11-27T01:31:10;7.80;99.90
10046;DHT22;5063;50.878;4.742;2022-11-27T01:33:37;8.00;99.90
10046;DHT22;5063;50.878;4.742;2022-11-27T01:36:05;7.80;99.90
10046;DHT22;5063;50.878;4.742;2022-11-27T01:38:32;8.00;99.90
10046;DHT22;5063;50.878;4.742;2022-11-27T01:40:59;7.80;99.90
10046;DHT22;5063;50.878;4.742;2022-11-27T01:43:45;7.70;99.90
10046;DHT22;5063;50.878;4.742;2022-11-27T01:46:38;7.90;99.90
10046;DHT22;5063;50.878;4.742;2022-11-27T01:51:39;7.80;99.90
10046;DHT22;5063;50.878;4.742;2022-11-27T01:54:08;8.00;99.90
10046;DHT22;5063;50.878;4.742;2022-11-27T01:56:34;7.80;99.90
10046;DHT22;5063;50.878;4.742;2022-11-27T01:59:01;7.80;99.90
10046;DHT22;5063;50.878;4.742;2022-11-27T02:01:28;7.90;99.90
10046;DHT22;5063;50.878;4.742;2022-11-27T02:03:57;7.80;99.90
10046;DHT22;5063;50.878;4.742;2022-11-27T02:06:23;7.90;99.90
10046;DHT22;5063;50.878;4.742;2022-11-27T02:08:50;7.90;99.90
10046;DHT22;5063;50.878;4.742;2022-11-27T02:14:49;7.70;99.90
10046;DHT22;5063;50.878;4.742;2022-11-27T02:17:26;7.80;99.90
10046;DHT22;5063;50.878;4.742;2022-11-27T02:20:36;7.80;99.90
10046;DHT22;5063;50.878;4.742;2022-11-27T02:23:26;7.90;99.90
10046;DHT22;5063;50.878;4.742;2022-11-27T02:29:05;7.70;99.90
10046;DHT22;5063;50.878;4.742;2022-11-27T02:34:24;7.60;99.90
10046;DHT22;5063;50.878;4.742;2022-11-27T02:39:58;7.60;99.90
10046;DHT22;5063;50.878;4.742;2022-11-27T02:42:29;7.70;99.90
10046;DHT22;5063;50.878;4.742;2022-11-27T02:45:02;7.70;99.90
10046;DHT22;5063;50.878;4.742;2022-11-27T02:47:29;7.80;99.90
10046;DHT22;5063;50.878;4.742;2022-11-27T02:49:56;7.70;99.90
10046;DHT22;5063;50.878;4.742;2022-11-27T02:52:27;7.80;99.90
10046;DHT22;5063;50.878;4.742;2022-11-27T02:54:55;7.80;99.90
10046;DHT22;5063;50.878;4.742;2022-11-27T02:57:23;7.80;99.90
10046;DHT22;5063;50.878;4.742;2022-11-27T02:59:50;7.80;99.90
10046;DHT22;5063;50.878;4.742;2022-11-27T03:02:22;7.90;99.90
10046;DHT22;5063;50.878;4.742;2022-11-27T03:04:51;7.90;99.90
10046;DHT22;5063;50.878;4.742;2022-11-27T03:07:40;8.20;99.90
10046;DHT22;5063;50.878;4.742;2022-11-27T03:10:20;8.00;99.90
10046;DHT22;5063;50.878;4.742;2022-11-27T03:12:47;7.90;99.90
10046;DHT22;5063;50.878;4.742;2022-11-27T03:15:14;7.90;99.90
10046;DHT22;5063;50.878;4.742;2022-11-27T03:18:21;7.80;99.90
10046;DHT22;5063;50.878;4.742;2022-11-27T03:20:59;7.80;99.90
10046;DHT22;5063;50.878;4.742;2022-11-27T03:23:28;7.80;99.90
10046;DHT22;5063;50.878;4.742;2022-11-27T03:25:54;7.80;99.90
10046;DHT22;5063;50.878;4.742;2022-11-27T03:28:20;7.80;99.90
10046;DHT22;5063;50.878;4.742;2022-11-27T03:30:46;7.90;99.90
10046;DHT22;5063;50.878;4.742;2022-11-27T03:33:12;7.90;99.90
10046;DHT22;5063;50.878;4.742;2022-11-27T03:35:38;8.00;99.90
10046;DHT22;5063;50.878;4.742;2022-11-27T03:38:04;8.00;99.90
10046;DHT22;5063;50.878;4.742;2022-11-27T03:40:58;7.90;99.90
10046;DHT22;5063;50.878;4.742;2022-11-27T03:43:26;7.90;99.90
10046;DHT22;5063;50.878;4.742;2022-11-27T03:46:08;8.00;99.90
10046;DHT22;5063;50.878;4.742;2022-11-27T03:51:43;8.10;99.90
10046;DHT22;5063;50.878;4.742;2022-11-27T03:57:18;8.00;99.90
10046;DHT22;5063;50.878;4.742;2022-11-27T03:59:48;8.10;99.90
10046;DHT22;5063;50.878;4.742;2022-11-27T04:02:27;8.10;99.90
10046;DHT22;5063;50.878;4.742;2022-11-27T04:04:53;8.20;99.90
10046;DHT22;5063;50.878;4.742;2022-11-27T04:07:19;8.50;99.90
10046;DHT22;5063;50.878;4.742;2022-11-27T04:09:44;8.30;99.90
10046;DHT22;5063;50.878;4.742;2022-11-27T04:12:10;8.30;99.90
10046;DHT22;5063;50.878;4.742;2022-11-27T04:14:37;8.40;99.90
10046;DHT22;5063;50.878;4.742;2022-11-27T04:17:02;8.40;99.90
10046;DHT22;5063;50.878;4.742;2022-11-27T04:19:28;8.40;99.90
10046;DHT22;5063;50.878;4.742;2022-11-27T04:21:54;8.40;99.90
10046;DHT22;5063;50.878;4.742;2022-11-27T04:24:19;8.40;99.90
10046;DHT22;5063;50.878;4.742;2022-11-27T04:26:45;8.50;99.90
10046;DHT22;5063;50.878;4.742;2022-11-27T04:29:11;8.50;99.90
10046;DHT22;5063;50.878;4.742;2022-11-27T04:31:36;8.60;99.90
10046;DHT22;5063;50.878;4.742;2022-11-27T04:34:02;8.50;99.90
10046;DHT22;5063;50.878;4.742;2022-11-27T04:36:28;8.60;99.90
10046;DHT22;5063;50.878;4.742;2022-11-27T04:38:53;8.60;99.90
10046;DHT22;5063;50.878;4.742;2022-11-27T04:41:19;8.60;99.90
10046;DHT22;5063;50.878;4.742;2022-11-27T04:43:45;8.70;99.90
10046;DHT22;5063;50.878;4.742;2022-11-27T04:46:10;8.70;99.90
10046;DHT22;5063;50.878;4.742;2022-11-27T04:48:36;8.70;99.90
10046;DHT22;5063;50.878;4.742;2022-11-27T04:51:02;8.70;99.90
10046;DHT22;5063;50.878;4.742;2022-11-27T04:53:27;8.60;99.90
10046;DHT22;5063;50.878;4.742;2022-11-27T04:55:53;8.60;99.90
10046;DHT22;5063;50.878;4.742;2022-11-27T04:58:19;8.70;99.90
10046;DHT22;5063;50.878;4.742;2022-11-27T05:00:45;8.60;99.90
10046;DHT22;5063;50.878;4.742;2022-11-27T05:03:10;8.60;99.90
10046;DHT22;5063;50.878;4.742;2022-11-27T05:05:36;8.60;99.90
10046;DHT22;5063;50.878;4.742;2022-11-27T05:08:03;8.50;99.90
10046;DHT22;5063;50.878;4.742;2022-11-27T05:10:28;8.60;99.90
10046;DHT22;5063;50.878;4.742;2022-11-27T05:12:54;8.70;99.90
10046;DHT22;5063;50.878;4.742;2022-11-27T05:15:20;8.60;99.90
10046;DHT22;5063;50.878;4.742;2022-11-27T05:17:45;8.60;99.90
10046;DHT22;5063;50.878;4.742;2022-11-27T05:20:11;8.50;99.90
10046;DHT22;5063;50.878;4.742;2022-11-27T05:22:37;8.50;99.90
10046;DHT22;5063;50.878;4.742;2022-11-27T05:25:03;8.50;99.90
10046;DHT22;5063;50.878;4.742;2022-11-27T05:27:28;8.50;99.90
10046;DHT22;5063;50.878;4.742;2022-11-27T05:29:54;8.60;99.90
10046;DHT22;5063;50.878;4.742;2022-11-27T05:32:20;8.50;99.90
10046;DHT22;5063;50.878;4.742;2022-11-27T05:34:45;8.50;99.90
10046;DHT22;5063;50.878;4.742;2022-11-27T05:37:13;8.50;99.90
10046;DHT22;5063;50.878;4.742;2022-11-27T05:39:39;8.50;99.90
10046;DHT22;5063;50.878;4.742;2022-11-27T05:42:04;8.40;99.90
10046;DHT22;5063;50.878;4.742;2022-11-27T05:44:30;8.40;99.90
10046;DHT22;5063;50.878;4.742;2022-11-27T05:46:56;8.40;99.90
10046;DHT22;5063;50.878;4.742;2022-11-27T05:49:22;8.30;99.90
10046;DHT22;5063;50.878;4.742;2022-11-27T05:51:47;8.30;99.90
10046;DHT22;5063;50.878;4.742;2022-11-27T05:54:13;8.30;99.90
10046;DHT22;5063;50.878;4.742;2022-11-27T05:56:38;8.30;99.90
10046;DHT22;5063;50.878;4.742;2022-11-27T05:59:04;8.30;99.90
10046;DHT22;5063;50.878;4.742;2022-11-27T06:01:30;8.30;99.90
10046;DHT22;5063;50.878;4.742;2022-11-27T06:03:56;8.30;99.90
10046;DHT22;5063;50.878;4.742;2022-11-27T06:06:21;8.30;99.90
10046;DHT22;5063;50.878;4.742;2022-11-27T06:08:47;8.30;99.90
10046;DHT22;5063;50.878;4.742;2022-11-27T06:11:18;8.20;99.90
10046;DHT22;5063;50.878;4.742;2022-11-27T06:13:46;8.30;99.90
10046;DHT22;5063;50.878;4.742;2022-11-27T06:16:14;8.30;99.90
10046;DHT22;5063;50.878;4.742;2022-11-27T06:18:41;8.20;99.90
10046;DHT22;5063;50.878;4.742;2022-11-27T06:21:08;8.30;99.90
10046;DHT22;5063;50.878;4.742;2022-11-27T06:23:35;8.20;99.90
10046;DHT22;5063;50.878;4.742;2022-11-27T06:26:19;8.20;99.90
10046;DHT22;5063;50.878;4.742;2022-11-27T06:28:46;8.20;99.90
10046;DHT22;5063;50.878;4.742;2022-11-27T06:31:21;8.30;99.90
10046;DHT22;5063;50.878;4.742;2022-11-27T06:33:48;8.50;99.90
10046;DHT22;5063;50.878;4.742;2022-11-27T06:36:15;8.30;99.90
10046;DHT22;5063;50.878;4.742;2022-11-27T06:38:41;8.30;99.90
10046;DHT22;5063;50.878;4.742;2022-11-27T06:41:09;8.30;99.90
10046;DHT22;5063;50.878;4.742;2022-11-27T06:43:35;8.30;99.90
10046;DHT22;5063;50.878;4.742;2022-11-27T06:46:03;8.30;99.90
10046;DHT22;5063;50.878;4.742;2022-11-27T06:48:29;8.20;99.90
10046;DHT22;5063;50.878;4.742;2022-11-27T06:51:01;8.20;99.90
10046;DHT22;5063;50.878;4.742;2022-11-27T06:53:33;8.20;99.90
10046;DHT22;5063;50.878;4.742;2022-11-27T06:56:01;8.30;99.90
10046;DHT22;5063;50.878;4.742;2022-11-27T06:58:27;8.30;99.90
10046;DHT22;5063;50.878;4.742;2022-11-27T07:00:57;8.30;99.90
10046;DHT22;5063;50.878;4.742;2022-11-27T07:03:23;8.50;99.90
10046;DHT22;5063;50.878;4.742;2022-11-27T07:05:49;8.40;99.90
10046;DHT22;5063;50.878;4.742;2022-11-27T07:08:15;8.40;99.90
10046;DHT22;5063;50.878;4.742;2022-11-27T07:10:40;8.60;99.90
10046;DHT22;5063;50.878;4.742;2022-11-27T07:13:06;8.70;99.90
10046;DHT22;5063;50.878;4.742;2022-11-27T07:15:32;8.40;99.90
10046;DHT22;5063;50.878;4.742;2022-11-27T07:17:58;8.40;99.90
10046;DHT22;5063;50.878;4.742;2022-11-27T07:20:23;8.50;99.90
10046;DHT22;5063;50.878;4.742;2022-11-27T07:22:49;8.00;99.90
10046;DHT22;5063;50.878;4.742;2022-11-27T07:25:15;8.40;99.90
10046;DHT22;5063;50.878;4.742;2022-11-27T07:27:41;8.40;99.90
10046;DHT22;5063;50.878;4.742;2022-11-27T07:30:07;8.40;99.90
10046;DHT22;5063;50.878;4.742;2022-11-27T07:32:33;8.50;99.90
10046;DHT22;5063;50.878;4.742;2022-11-27T07:34:58;8.50;99.90
10046;DHT22;5063;50.878;4.742;2022-11-27T07:37:24;8.50;99.90
10046;DHT22;5063;50.878;4.742;2022-11-27T07:39:50;8.50;99.90
10046;DHT22;5063;50.878;4.742;2022-11-27T07:42:15;8.60;99.90
10046;DHT22;5063;50.878;4.742;2022-11-27T07:44:41;8.60;99.90
10046;DHT22;5063;50.878;4.742;2022-11-27T07:47:07;8.60;99.90
10046;DHT22;5063;50.878;4.742;2022-11-27T07:49:33;8.50;99.90
10046;DHT22;5063;50.878;4.742;2022-11-27T07:51:58;8.70;99.90
10046;DHT22;5063;50.878;4.742;2022-11-27T07:54:24;8.60;99.90
10046;DHT22;5063;50.878;4.742;2022-11-27T07:56:50;8.70;99.90
10046;DHT22;5063;50.878;4.742;2022-11-27T07:59:15;8.80;99.90
10046;DHT22;5063;50.878;4.742;2022-11-27T08:01:41;8.90;99.90
10046;DHT22;5063;50.878;4.742;2022-11-27T08:04:09;8.90;99.90
10046;DHT22;5063;50.878;4.742;2022-11-27T08:06:34;8.90;99.90
10046;DHT22;5063;50.878;4.742;2022-11-27T08:09:00;8.40;99.90
10046;DHT22;5063;50.878;4.742;2022-11-27T08:11:29;8.80;99.90
10046;DHT22;5063;50.878;4.742;2022-11-27T08:14:06;8.90;99.90
10046;DHT22;5063;50.878;4.742;2022-11-27T08:16:33;8.90;99.90
10046;DHT22;5063;50.878;4.742;2022-11-27T08:18:59;8.90;99.90
10046;DHT22;5063;50.878;4.742;2022-11-27T08:21:26;9.00;99.90
10046;DHT22;5063;50.878;4.742;2022-11-27T08:23:52;9.00;99.90
10046;DHT22;5063;50.878;4.742;2022-11-27T08:26:18;9.00;99.90
10046;DHT22;5063;50.878;4.742;2022-11-27T08:28:45;9.10;99.90
10046;DHT22;5063;50.878;4.742;2022-11-27T08:31:12;9.20;99.90
10046;DHT22;5063;50.878;4.742;2022-11-27T08:33:38;9.20;99.90
10046;DHT22;5063;50.878;4.742;2022-11-27T08:36:05;9.20;99.90
10046;DHT22;5063;50.878;4.742;2022-11-27T08:38:31;9.30;99.90
10046;DHT22;5063;50.878;4.742;2022-11-27T08:40:58;9.30;99.90
10046;DHT22;5063;50.878;4.742;2022-11-27T08:43:25;9.30;99.90
10046;DHT22;5063;50.878;4.742;2022-11-27T08:45:51;9.20;99.90
10046;DHT22;5063;50.878;4.742;2022-11-27T08:48:17;9.10;99.90
10046;DHT22;5063;50.878;4.742;2022-11-27T08:50:43;9.20;99.90
10046;DHT22;5063;50.878;4.742;2022-11-27T08:53:09;9.00;99.90
10046;DHT22;5063;50.878;4.742;2022-11-27T08:55:35;9.20;99.90
10046;DHT22;5063;50.878;4.742;2022-11-27T08:58:01;9.20;99.90
10046;DHT22;5063;50.878;4.742;2022-11-27T09:00:28;9.30;99.90
10046;DHT22;5063;50.878;4.742;2022-11-27T09:02:54;9.40;99.90
10046;DHT22;5063;50.878;4.742;2022-11-27T09:05:20;9.50;99.90
10046;DHT22;5063;50.878;4.742;2022-11-27T09:07:46;9.50;99.90
10046;DHT22;5063;50.878;4.742;2022-11-27T09:10:12;9.50;99.90
10046;DHT22;5063;50.878;4.742;2022-11-27T09:12:37;9.60;99.90
10046;DHT22;5063;50.878;4.742;2022-11-27T09:15:04;9.60;99.90
10046;DHT22;5063;50.878;4.742;2022-11-27T09:17:29;9.60;99.90
10046;DHT22;5063;50.878;4.742;2022-11-27T09:19:55;9.70;99.90
10046;DHT22;5063;50.878;4.742;2022-11-27T09:22:21;9.70;99.90
10046;DHT22;5063;50.878;4.742;2022-11-27T09:24:46;9.60;99.90
10046;DHT22;5063;50.878;4.742;2022-11-27T09:27:12;9.60;99.90
10046;DHT22;5063;50.878;4.742;2022-11-27T09:29:38;9.50;99.90
10046;DHT22;5063;50.878;4.742;2022-11-27T09:32:03;9.60;99.90
10046;DHT22;5063;50.878;4.742;2022-11-27T09:34:30;9.60;99.90
10046;DHT22;5063;50.878;4.742;2022-11-27T09:36:55;9.70;99.90
10046;DHT22;5063;50.878;4.742;2022-11-27T09:39:21;9.70;99.90
10046;DHT22;5063;50.878;4.742;2022-11-27T09:41:52;9.70;99.90
10046;DHT22;5063;50.878;4.742;2022-11-27T09:47:38;9.70;99.90
10046;DHT22;5063;50.878;4.742;2022-11-27T09:55:39;9.60;99.90
10046;DHT22;5063;50.878;4.742;2022-11-27T10:00:46;9.60;99.90
10046;DHT22;5063;50.878;4.742;2022-11-27T10:03:24;9.70;99.90
10046;DHT22;5063;50.878;4.742;2022-11-27T10:08:35;9.60;99.90
10046;DHT22;5063;50.878;4.742;2022-11-27T10:11:10;9.60;99.90
10046;DHT22;5063;50.878;4.742;2022-11-27T10:13:54;9.70;99.90
10046;DHT22;5063;50.878;4.742;2022-11-27T10:16:43;9.80;99.90
10046;DHT22;5063;50.878;4.742;2022-11-27T10:22:22;9.80;99.90
10046;DHT22;5063;50.878;4.742;2022-11-27T10:30:26;9.90;99.90
10046;DHT22;5063;50.878;4.742;2022-11-27T10:32:54;9.90;99.90
10046;DHT22;5063;50.878;4.742;2022-11-27T10:35:29;10.00;99.90
10046;DHT22;5063;50.878;4.742;2022-11-27T10:38:02;10.10;99.90
10046;DHT22;5063;50.878;4.742;2022-11-27T10:43:21;10.00;99.90
10046;DHT22;5063;50.878;4.742;2022-11-27T10:48:35;9.90;99.90
10046;DHT22;5063;50.878;4.742;2022-11-27T10:51:00;9.90;99.90
10046;DHT22;5063;50.878;4.742;2022-11-27T10:53:32;9.80;99.90
10046;DHT22;5063;50.878;4.742;2022-11-27T11:01:13;10.10;99.90
10046;DHT22;5063;50.878;4.742;2022-11-27T11:03:39;10.30;99.90
10046;DHT22;5063;50.878;4.742;2022-11-27T11:06:24;10.30;99.90
10046;DHT22;5063;50.878;4.742;2022-11-27T11:09:06;10.40;99.90
10046;DHT22;5063;50.878;4.742;2022-11-27T11:11:36;10.40;99.90
10046;DHT22;5063;50.878;4.742;2022-11-27T11:14:02;10.40;99.90
10046;DHT22;5063;50.878;4.742;2022-11-27T11:16:28;10.30;99.90
10046;DHT22;5063;50.878;4.742;2022-11-27T11:18:56;10.30;99.90
10046;DHT22;5063;50.878;4.742;2022-11-27T11:24:19;10.40;99.90
10046;DHT22;5063;50.878;4.742;2022-11-27T11:26:49;10.60;99.90
10046;DHT22;5063;50.878;4.742;2022-11-27T11:29:28;10.70;99.90
10046;DHT22;5063;50.878;4.742;2022-11-27T11:31:56;10.60;99.90
10046;DHT22;5063;50.878;4.742;2022-11-27T11:34:29;10.70;99.90
10046;DHT22;5063;50.878;4.742;2022-11-27T11:36:59;10.80;99.90
10046;DHT22;5063;50.878;4.742;2022-11-27T11:39:28;10.70;99.90
10046;DHT22;5063;50.878;4.742;2022-11-27T11:41:55;10.60;99.90
10046;DHT22;5063;50.878;4.742;2022-11-27T11:44:34;10.70;99.90
10046;DHT22;5063;50.878;4.742;2022-11-27T11:47:00;10.80;99.90
10046;DHT22;5063;50.878;4.742;2022-11-27T11:49:27;10.90;99.90
10046;DHT22;5063;50.878;4.742;2022-11-27T11:57:45;11.30;99.90
10046;DHT22;5063;50.878;4.742;2022-11-27T12:00:21;11.50;99.90
10046;DHT22;5063;50.878;4.742;2022-11-27T12:03:11;11.60;99.90
10046;DHT22;5063;50.878;4.742;2022-11-27T12:06:04;11.60;99.90
10046;DHT22;5063;50.878;4.742;2022-11-27T12:08:56;11.50;99.90
10046;DHT22;5063;50.878;4.742;2022-11-27T12:25:32;11.20;99.90
10046;DHT22;5063;50.878;4.742;2022-11-27T12:31:13;11.00;99.90
10046;DHT22;5063;50.878;4.742;2022-11-27T12:34:03;10.90;99.90
10046;DHT22;5063;50.878;4.742;2022-11-27T12:45:05;10.80;99.90
10046;DHT22;5063;50.878;4.742;2022-11-27T12:47:47;10.80;99.90
10046;DHT22;5063;50.878;4.742;2022-11-27T12:50:44;10.70;99.90
10046;DHT22;5063;50.878;4.742;2022-11-27T12:53:30;10.70;99.90
10046;DHT22;5063;50.878;4.742;2022-11-27T12:58:49;10.60;99.90
10046;DHT22;5063;50.878;4.742;2022-11-27T13:07:11;10.50;99.90
10046;DHT22;5063;50.878;4.742;2022-11-27T13:10:14;10.40;99.90
10046;DHT22;5063;50.878;4.742;2022-11-27T13:12:43;10.40;99.90
10046;DHT22;5063;50.878;4.742;2022-11-27T13:18:44;10.50;99.90
10046;DHT22;5063;50.878;4.742;2022-11-27T13:21:24;10.50;99.90
10046;DHT22;5063;50.878;4.742;2022-11-27T13:23:51;10.60;99.90
10046;DHT22;5063;50.878;4.742;2022-11-27T13:26:33;10.60;99.90
10046;DHT22;5063;50.878;4.742;2022-11-27T13:29:27;10.60;99.90
10046;DHT22;5063;50.878;4.742;2022-11-27T13:31:56;10.70;99.90
10046;DHT22;5063;50.878;4.742;2022-11-27T13:34:25;10.60;99.90
10046;DHT22;5063;50.878;4.742;2022-11-27T13:39:33;10.50;99.90
10046;DHT22;5063;50.878;4.742;2022-11-27T13:42:06;10.50;99.90
10046;DHT22;5063;50.878;4.742;2022-11-27T13:44:35;10.60;99.90
10046;DHT22;5063;50.878;4.742;2022-11-27T13:47:11;10.60;99.90
10046;DHT22;5063;50.878;4.742;2022-11-27T13:49:37;10.50;99.90
10046;DHT22;5063;50.878;4.742;2022-11-27T13:52:13;10.60;99.90
10046;DHT22;5063;50.878;4.742;2022-11-27T13:54:54;10.50;99.90
10046;DHT22;5063;50.878;4.742;2022-11-27T13:57:20;10.60;99.90
10046;DHT22;5063;50.878;4.742;2022-11-27T14:00:00;10.60;99.90
10046;DHT22;5063;50.878;4.742;2022-11-27T14:02:44;10.60;99.90
10046;DHT22;5063;50.878;4.742;2022-11-27T14:05:12;10.60;99.90
10046;DHT22;5063;50.878;4.742;2022-11-27T14:07:41;10.60;99.90
10046;DHT22;5063;50.878;4.742;2022-11-27T14:10:14;10.50;99.90
10046;DHT22;5063;50.878;4.742;2022-11-27T14:12:40;10.40;99.90
10046;DHT22;5063;50.878;4.742;2022-11-27T14:17:44;10.40;99.90
10046;DHT22;5063;50.878;4.742;2022-11-27T14:25:23;10.50;99.90
10046;DHT22;5063;50.878;4.742;2022-11-27T14:30:47;10.60;99.90
10046;DHT22;5063;50.878;4.742;2022-11-27T14:35:51;10.60;99.90
10046;DHT22;5063;50.878;4.742;2022-11-27T14:38:17;10.50;99.90
10046;DHT22;5063;50.878;4.742;2022-11-27T14:40:43;10.40;99.90
10046;DHT22;5063;50.878;4.742;2022-11-27T14:43:26;10.40;99.90
10046;DHT22;5063;50.878;4.742;2022-11-27T14:45:57;10.20;99.90
10046;DHT22;5063;50.878;4.742;2022-11-27T14:48:29;10.10;99.90
10046;DHT22;5063;50.878;4.742;2022-11-27T14:50:56;10.00;99.90
10046;DHT22;5063;50.878;4.742;2022-11-27T14:53:25;10.00;99.90
10046;DHT22;5063;50.878;4.742;2022-11-27T14:55:54;10.00;99.90
10046;DHT22;5063;50.878;4.742;2022-11-27T14:58:29;10.00;99.90
10046;DHT22;5063;50.878;4.742;2022-11-27T15:01:03;10.00;99.90
10046;DHT22;5063;50.878;4.742;2022-11-27T15:03:29;10.00;99.90
10046;DHT22;5063;50.878;4.742;2022-11-27T15:06:00;10.10;99.90
10046;DHT22;5063;50.878;4.742;2022-11-27T15:08:29;10.20;99.90
10046;DHT22;5063;50.878;4.742;2022-11-27T15:10:57;10.20;99.90
10046;DHT22;5063;50.878;4.742;2022-11-27T15:13:30;10.20;99.90
10046;DHT22;5063;50.878;4.742;2022-11-27T15:16:06;10.20;99.90
10046;DHT22;5063;50.878;4.742;2022-11-27T15:18:34;10.10;99.90
10046;DHT22;5063;50.878;4.742;2022-11-27T15:21:07;10.00;99.90
10046;DHT22;5063;50.878;4.742;2022-11-27T15:23:34;9.90;99.90
10046;DHT22;5063;50.878;4.742;2022-11-27T15:26:10;9.90;99.90
10046;DHT22;5063;50.878;4.742;2022-11-27T15:28:40;9.90;99.90
10046;DHT22;5063;50.878;4.742;2022-11-27T15:31:29;9.80;99.90
10046;DHT22;5063;50.878;4.742;2022-11-27T15:36:57;9.90;99.90
10046;DHT22;5063;50.878;4.742;2022-11-27T15:42:01;9.80;99.90
10046;DHT22;5063;50.878;4.742;2022-11-27T15:44:29;9.70;99.90
10046;DHT22;5063;50.878;4.742;2022-11-27T15:46:57;9.60;99.90
10046;DHT22;5063;50.878;4.742;2022-11-27T15:49:23;9.70;99.90
10046;DHT22;5063;50.878;4.742;2022-11-27T15:51:50;9.70;99.90
10046;DHT22;5063;50.878;4.742;2022-11-27T15:54:16;9.60;99.90
10046;DHT22;5063;50.878;4.742;2022-11-27T15:56:42;9.50;99.90
10046;DHT22;5063;50.878;4.742;2022-11-27T15:59:09;9.50;99.90
10046;DHT22;5063;50.878;4.742;2022-11-27T16:01:36;9.70;99.90
10046;DHT22;5063;50.878;4.742;2022-11-27T16:04:02;9.50;99.90
10046;DHT22;5063;50.878;4.742;2022-11-27T16:06:28;9.60;99.90
10046;DHT22;5063;50.878;4.742;2022-11-27T16:08:59;9.50;99.90
10046;DHT22;5063;50.878;4.742;2022-11-27T16:11:29;9.50;99.90
10046;DHT22;5063;50.878;4.742;2022-11-27T16:13:55;9.50;99.90
10046;DHT22;5063;50.878;4.742;2022-11-27T16:16:21;9.50;99.90
10046;DHT22;5063;50.878;4.742;2022-11-27T16:18:48;9.60;99.90
10046;DHT22;5063;50.878;4.742;2022-11-27T16:21:15;9.50;99.90
10046;DHT22;5063;50.878;4.742;2022-11-27T16:23:42;9.40;99.90
10046;DHT22;5063;50.878;4.742;2022-11-27T16:26:10;9.40;99.90
10046;DHT22;5063;50.878;4.742;2022-11-27T16:28:36;9.50;99.90
10046;DHT22;5063;50.878;4.742;2022-11-27T16:31:07;9.50;99.90
10046;DHT22;5063;50.878;4.742;2022-11-27T16:33:33;9.50;99.90
10046;DHT22;5063;50.878;4.742;2022-11-27T16:36:10;9.40;99.90
10046;DHT22;5063;50.878;4.742;2022-11-27T16:38:38;9.40;99.90
10046;DHT22;5063;50.878;4.742;2022-11-27T16:41:06;9.50;99.90
10046;DHT22;5063;50.878;4.742;2022-11-27T16:43:40;9.40;99.90
10046;DHT22;5063;50.878;4.742;2022-11-27T16:46:18;9.40;99.90
10046;DHT22;5063;50.878;4.742;2022-11-27T16:48:45;9.40;99.90
10046;DHT22;5063;50.878;4.742;2022-11-27T16:51:19;9.40;99.90
10046;DHT22;5063;50.878;4.742;2022-11-27T16:53:47;9.40;99.90
10046;DHT22;5063;50.878;4.742;2022-11-27T16:56:16;9.30;99.90
10046;DHT22;5063;50.878;4.742;2022-11-27T16:58:43;9.40;99.90
10046;DHT22;5063;50.878;4.742;2022-11-27T17:01:16;9.30;99.90
10046;DHT22;5063;50.878;4.742;2022-11-27T17:03:42;9.40;99.90
10046;DHT22;5063;50.878;4.742;2022-11-27T17:06:16;9.30;99.90
10046;DHT22;5063;50.878;4.742;2022-11-27T17:08:42;9.20;99.90
10046;DHT22;5063;50.878;4.742;2022-11-27T17:11:14;9.20;99.90
10046;DHT22;5063;50.878;4.742;2022-11-27T17:13:42;9.30;99.90
10046;DHT22;5063;50.878;4.742;2022-11-27T17:16:08;9.30;99.90
10046;DHT22;5063;50.878;4.742;2022-11-27T17:18:41;9.30;99.90
10046;DHT22;5063;50.878;4.742;2022-11-27T17:21:18;9.30;99.90
10046;DHT22;5063;50.878;4.742;2022-11-27T17:23:50;9.30;99.90
10046;DHT22;5063;50.878;4.742;2022-11-27T17:26:18;9.40;99.90
10046;DHT22;5063;50.878;4.742;2022-11-27T17:28:44;9.40;99.90
10046;DHT22;5063;50.878;4.742;2022-11-27T17:31:14;9.40;99.90
10046;DHT22;5063;50.878;4.742;2022-11-27T17:33:40;9.40;99.90
10046;DHT22;5063;50.878;4.742;2022-11-27T17:36:06;9.40;99.90
10046;DHT22;5063;50.878;4.742;2022-11-27T17:38:31;9.30;99.90
10046;DHT22;5063;50.878;4.742;2022-11-27T17:41:09;9.30;99.90
10046;DHT22;5063;50.878;4.742;2022-11-27T17:43:36;9.40;99.90
10046;DHT22;5063;50.878;4.742;2022-11-27T17:46:09;9.40;99.90
10046;DHT22;5063;50.878;4.742;2022-11-27T17:48:35;9.40;99.90
10046;DHT22;5063;50.878;4.742;2022-11-27T17:51:01;9.50;99.90
10046;DHT22;5063;50.878;4.742;2022-11-27T17:53:27;9.40;99.90
10046;DHT22;5063;50.878;4.742;2022-11-27T17:55:52;9.30;99.90
10046;DHT22;5063;50.878;4.742;2022-11-27T17:58:20;9.40;99.90
10046;DHT22;5063;50.878;4.742;2022-11-27T18:00:46;9.30;99.90
10046;DHT22;5063;50.878;4.742;2022-11-27T18:03:11;9.40;99.90
10046;DHT22;5063;50.878;4.742;2022-11-27T18:05:37;9.20;99.90
10046;DHT22;5063;50.878;4.742;2022-11-27T18:08:04;9.20;99.90
10046;DHT22;5063;50.878;4.742;2022-11-27T18:10:31;9.20;99.90
10046;DHT22;5063;50.878;4.742;2022-11-27T18:12:57;9.30;99.90